sensor_id;sensor_type;location;lat;lon;timestamp;pressure;altitude;pressure_sealevel;temperature;humidity
75788;BME280;64406;50.024;14.492;2023-04-03T00:00:42;98724.66;;;2.38;70.55
75788;BME280;64406;50.024;14.492;2023-04-03T00:03:17;98718.34;;;2.33;70.52
75788;BME280;64406;50.024;14.492;2023-04-03T00:05:43;98714.47;;;2.29;70.44
75788;BME280;64406;50.024;14.492;2023-04-03T00:08:08;98729.59;;;2.35;70.61
75788;BME280;64406;50.024;14.492;2023-04-03T00:10:36;98718.56;;;2.31;70.85
75788;BME280;64406;50.024;14.492;2023-04-03T00:13:03;98725.88;;;2.36;70.60
75788;BME280;64406;50.024;14.492;2023-04-03T00:15:30;98719.75;;;2.35;71.00
75788;BME280;64406;50.024;14.492;2023-04-03T00:17:56;98728.19;;;2.32;70.92
75788;BME280;64406;50.024;14.492;2023-04-03T00:20:21;98723.91;;;2.31;70.90
75788;BME280;64406;50.024;14.492;2023-04-03T00:22:47;98721.88;;;2.27;71.20
75788;BME280;64406;50.024;14.492;2023-04-03T00:25:12;98719.38;;;2.32;70.74
75788;BME280;64406;50.024;14.492;2023-04-03T00:27:39;98715.50;;;2.28;70.61
75788;BME280;64406;50.024;14.492;2023-04-03T00:30:07;98735.72;;;2.35;70.38
75788;BME280;64406;50.024;14.492;2023-04-03T00:32:33;98733.53;;;2.26;70.48
75788;BME280;64406;50.024;14.492;2023-04-03T00:34:58;98721.88;;;2.27;70.54
75788;BME280;64406;50.024;14.492;2023-04-03T00:37:24;98718.38;;;2.26;71.15
75788;BME280;64406;50.024;14.492;2023-04-03T00:39:50;98715.78;;;2.20;70.81
75788;BME280;64406;50.024;14.492;2023-04-03T00:42:16;98728.25;;;2.19;70.96
75788;BME280;64406;50.024;14.492;2023-04-03T00:47:13;98721.88;;;2.27;70.49
75788;BME280;64406;50.024;14.492;2023-04-03T00:49:40;98729.03;;;2.26;71.28
75788;BME280;64406;50.024;14.492;2023-04-03T00:52:10;98741.88;;;2.29;71.07
75788;BME280;64406;50.024;14.492;2023-04-03T00:54:38;98744.34;;;2.24;70.80
75788;BME280;64406;50.024;14.492;2023-04-03T00:57:08;98728.63;;;2.23;70.88
75788;BME280;64406;50.024;14.492;2023-04-03T00:59:36;98733.72;;;2.24;70.65
75788;BME280;64406;50.024;14.492;2023-04-03T01:02:05;98726.97;;;2.28;70.29
75788;BME280;64406;50.024;14.492;2023-04-03T01:07:05;98742.69;;;2.30;69.99
75788;BME280;64406;50.024;14.492;2023-04-03T01:09:32;98746.00;;;2.25;70.00
75788;BME280;64406;50.024;14.492;2023-04-03T01:12:25;98743.38;;;2.18;69.51
75788;BME280;64406;50.024;14.492;2023-04-03T01:14:57;98745.03;;;2.13;69.54
75788;BME280;64406;50.024;14.492;2023-04-03T01:17:33;98751.38;;;2.12;69.42
75788;BME280;64406;50.024;14.492;2023-04-03T01:25:53;98741.69;;;1.79;69.22
75788;BME280;64406;50.024;14.492;2023-04-03T01:28:27;98753.47;;;1.90;68.57
75788;BME280;64406;50.024;14.492;2023-04-03T01:33:28;98756.56;;;1.94;67.72
75788;BME280;64406;50.024;14.492;2023-04-03T01:35:54;98768.22;;;1.93;67.96
75788;BME280;64406;50.024;14.492;2023-04-03T01:38:20;98767.19;;;1.87;66.60
75788;BME280;64406;50.024;14.492;2023-04-03T01:40:45;98767.41;;;1.85;66.11
75788;BME280;64406;50.024;14.492;2023-04-03T01:43:11;98769.09;;;1.67;66.60
75788;BME280;64406;50.024;14.492;2023-04-03T01:45:37;98772.56;;;1.67;65.86
75788;BME280;64406;50.024;14.492;2023-04-03T01:48:03;98774.41;;;1.60;65.54
75788;BME280;64406;50.024;14.492;2023-04-03T01:50:29;98774.63;;;1.45;66.45
75788;BME280;64406;50.024;14.492;2023-04-03T01:52:55;98770.53;;;1.49;65.77
75788;BME280;64406;50.024;14.492;2023-04-03T01:55:20;98794.66;;;1.41;65.39
75788;BME280;64406;50.024;14.492;2023-04-03T01:57:46;98796.50;;;1.41;63.98
75788;BME280;64406;50.024;14.492;2023-04-03T02:00:12;98798.72;;;1.24;64.74
75788;BME280;64406;50.024;14.492;2023-04-03T02:02:39;98802.03;;;1.19;64.64
75788;BME280;64406;50.024;14.492;2023-04-03T02:05:04;98809.13;;;1.19;64.82
75788;BME280;64406;50.024;14.492;2023-04-03T02:07:30;98801.59;;;1.09;65.08
75788;BME280;64406;50.024;14.492;2023-04-03T02:09:56;98816.09;;;1.06;65.08
75788;BME280;64406;50.024;14.492;2023-04-03T02:12:21;98806.06;;;0.95;63.94
75788;BME280;64406;50.024;14.492;2023-04-03T02:14:47;98797.91;;;0.90;63.78
75788;BME280;64406;50.024;14.492;2023-04-03T02:17:13;98809.53;;;0.82;63.49
75788;BME280;64406;50.024;14.492;2023-04-03T02:19:38;98808.69;;;0.75;63.62
75788;BME280;64406;50.024;14.492;2023-04-03T02:22:05;98815.19;;;0.60;63.48
75788;BME280;64406;50.024;14.492;2023-04-03T02:24:31;98830.88;;;0.54;63.58
75788;BME280;64406;50.024;14.492;2023-04-03T02:26:57;98820.66;;;0.51;63.13
75788;BME280;64406;50.024;14.492;2023-04-03T02:29:22;98812.66;;;0.38;63.61
75788;BME280;64406;50.024;14.492;2023-04-03T02:31:49;98829.16;;;0.27;63.78
75788;BME280;64406;50.024;14.492;2023-04-03T02:34:15;98833.56;;;0.13;64.40
75788;BME280;64406;50.024;14.492;2023-04-03T02:36:41;98828.41;;;0.05;63.99
75788;BME280;64406;50.024;14.492;2023-04-03T02:39:07;98821.13;;;-0.21;65.08
75788;BME280;64406;50.024;14.492;2023-04-03T02:41:33;98826.19;;;-0.33;65.82
75788;BME280;64406;50.024;14.492;2023-04-03T02:44:02;98820.84;;;-0.39;65.49
75788;BME280;64406;50.024;14.492;2023-04-03T02:46:28;98821.88;;;-0.62;67.34
75788;BME280;64406;50.024;14.492;2023-04-03T02:48:54;98824.88;;;-0.71;67.12
75788;BME280;64406;50.024;14.492;2023-04-03T02:51:20;98832.69;;;-0.85;67.22
75788;BME280;64406;50.024;14.492;2023-04-03T02:53:46;98830.22;;;-0.86;66.88
75788;BME280;64406;50.024;14.492;2023-04-03T02:56:11;98830.81;;;-1.12;67.81
75788;BME280;64406;50.024;14.492;2023-04-03T02:58:37;98830.88;;;-1.05;67.11
75788;BME280;64406;50.024;14.492;2023-04-03T03:01:03;98833.56;;;-1.20;67.93
75788;BME280;64406;50.024;14.492;2023-04-03T03:03:29;98834.31;;;-1.26;68.84
75788;BME280;64406;50.024;14.492;2023-04-03T03:06:05;98827.66;;;-1.44;68.21
75788;BME280;64406;50.024;14.492;2023-04-03T03:08:31;98840.03;;;-1.44;69.56
75788;BME280;64406;50.024;14.492;2023-04-03T03:10:57;98837.25;;;-1.57;69.70
75788;BME280;64406;50.024;14.492;2023-04-03T03:13:23;98847.00;;;-1.58;69.83
75788;BME280;64406;50.024;14.492;2023-04-03T03:15:49;98847.97;;;-1.59;68.88
75788;BME280;64406;50.024;14.492;2023-04-03T03:18:15;98842.69;;;-1.59;69.40
75788;BME280;64406;50.024;14.492;2023-04-03T03:20:40;98854.50;;;-1.76;70.04
75788;BME280;64406;50.024;14.492;2023-04-03T03:23:06;98853.03;;;-1.94;70.61
75788;BME280;64406;50.024;14.492;2023-04-03T03:25:32;98861.50;;;-1.98;71.28
75788;BME280;64406;50.024;14.492;2023-04-03T03:27:59;98850.59;;;-2.10;70.72
75788;BME280;64406;50.024;14.492;2023-04-03T03:30:24;98856.31;;;-2.21;71.89
75788;BME280;64406;50.024;14.492;2023-04-03T03:32:51;98856.69;;;-2.24;71.88
75788;BME280;64406;50.024;14.492;2023-04-03T03:35:17;98867.16;;;-2.31;72.10
75788;BME280;64406;50.024;14.492;2023-04-03T03:37:42;98865.13;;;-2.29;71.90
75788;BME280;64406;50.024;14.492;2023-04-03T03:40:09;98862.03;;;-2.32;72.04
75788;BME280;64406;50.024;14.492;2023-04-03T03:42:34;98855.75;;;-2.31;71.33
75788;BME280;64406;50.024;14.492;2023-04-03T03:45:00;98851.66;;;-2.34;72.19
75788;BME280;64406;50.024;14.492;2023-04-03T03:47:25;98875.69;;;-2.29;71.53
75788;BME280;64406;50.024;14.492;2023-04-03T03:49:51;98881.41;;;-2.25;70.69
75788;BME280;64406;50.024;14.492;2023-04-03T03:52:17;98878.13;;;-2.27;70.76
75788;BME280;64406;50.024;14.492;2023-04-03T03:54:43;98876.13;;;-2.40;71.53
75788;BME280;64406;50.024;14.492;2023-04-03T03:57:08;98875.19;;;-2.47;71.59
75788;BME280;64406;50.024;14.492;2023-04-03T03:59:34;98880.69;;;-2.34;71.58
75788;BME280;64406;50.024;14.492;2023-04-03T04:02:00;98885.50;;;-2.37;71.19
75788;BME280;64406;50.024;14.492;2023-04-03T04:04:26;98890.41;;;-2.49;71.00
75788;BME280;64406;50.024;14.492;2023-04-03T04:06:51;98884.56;;;-2.44;71.26
75788;BME280;64406;50.024;14.492;2023-04-03T04:09:17;98879.19;;;-2.51;71.17
75788;BME280;64406;50.024;14.492;2023-04-03T04:11:43;98886.84;;;-2.56;71.88
75788;BME280;64406;50.024;14.492;2023-04-03T04:14:09;98891.63;;;-2.60;72.40
75788;BME280;64406;50.024;14.492;2023-04-03T04:16:37;98891.00;;;-2.62;72.50
75788;BME280;64406;50.024;14.492;2023-04-03T04:19:03;98896.47;;;-2.49;71.12
75788;BME280;64406;50.024;14.492;2023-04-03T04:21:28;98891.22;;;-2.71;72.57
75788;BME280;64406;50.024;14.492;2023-04-03T04:23:54;98846.97;;;-2.99;72.06
75788;BME280;64406;50.024;14.492;2023-04-03T04:26:20;98895.88;;;-2.74;72.46
75788;BME280;64406;50.024;14.492;2023-04-03T04:28:46;98897.75;;;-2.82;72.73
75788;BME280;64406;50.024;14.492;2023-04-03T04:31:11;98898.16;;;-2.70;72.09
75788;BME280;64406;50.024;14.492;2023-04-03T04:33:37;98893.13;;;-2.80;72.83
75788;BME280;64406;50.024;14.492;2023-04-03T04:36:02;98885.72;;;-2.85;72.20
75788;BME280;64406;50.024;14.492;2023-04-03T04:38:28;98891.06;;;-2.93;72.21
75788;BME280;64406;50.024;14.492;2023-04-03T04:40:55;98908.38;;;-2.90;73.18
75788;BME280;64406;50.024;14.492;2023-04-03T04:43:21;98918.19;;;-2.84;72.85
75788;BME280;64406;50.024;14.492;2023-04-03T04:45:46;98920.47;;;-2.81;72.21
75788;BME280;64406;50.024;14.492;2023-04-03T04:48:12;98927.69;;;-2.75;72.57
75788;BME280;64406;50.024;14.492;2023-04-03T04:50:38;98912.56;;;-2.81;71.73
75788;BME280;64406;50.024;14.492;2023-04-03T04:53:04;98914.84;;;-2.78;72.11
75788;BME280;64406;50.024;14.492;2023-04-03T04:55:29;98921.34;;;-2.66;71.40
75788;BME280;64406;50.024;14.492;2023-04-03T04:57:55;98920.91;;;-2.69;71.25
75788;BME280;64406;50.024;14.492;2023-04-03T05:00:21;98907.72;;;-2.69;71.80
75788;BME280;64406;50.024;14.492;2023-04-03T05:02:46;98923.41;;;-2.76;72.87
75788;BME280;64406;50.024;14.492;2023-04-03T05:05:12;98912.78;;;-2.68;72.44
75788;BME280;64406;50.024;14.492;2023-04-03T05:07:38;98916.72;;;-2.64;71.95
75788;BME280;64406;50.024;14.492;2023-04-03T05:10:04;98916.44;;;-2.69;72.65
75788;BME280;64406;50.024;14.492;2023-04-03T05:12:31;98908.81;;;-2.64;72.14
75788;BME280;64406;50.024;14.492;2023-04-03T05:14:57;98911.78;;;-2.67;71.94
75788;BME280;64406;50.024;14.492;2023-04-03T05:17:23;98917.59;;;-2.71;72.41
75788;BME280;64406;50.024;14.492;2023-04-03T05:19:48;98922.22;;;-2.74;72.70
75788;BME280;64406;50.024;14.492;2023-04-03T05:22:14;98917.78;;;-2.73;72.45
75788;BME280;64406;50.024;14.492;2023-04-03T05:24:40;98932.47;;;-2.79;73.47
75788;BME280;64406;50.024;14.492;2023-04-03T05:27:06;98936.22;;;-2.73;73.56
75788;BME280;64406;50.024;14.492;2023-04-03T05:29:31;98936.66;;;-2.61;72.65
75788;BME280;64406;50.024;14.492;2023-04-03T05:31:59;98953.00;;;-2.43;71.77
75788;BME280;64406;50.024;14.492;2023-04-03T05:34:26;98952.22;;;-2.52;72.53
75788;BME280;64406;50.024;14.492;2023-04-03T05:36:52;98943.78;;;-2.47;71.73
75788;BME280;64406;50.024;14.492;2023-04-03T05:39:18;98965.84;;;-2.25;71.53
75788;BME280;64406;50.024;14.492;2023-04-03T05:41:45;98967.13;;;-2.21;70.51
75788;BME280;64406;50.024;14.492;2023-04-03T05:44:11;98946.41;;;-2.24;71.05
75788;BME280;64406;50.024;14.492;2023-04-03T05:46:37;98956.41;;;-2.20;71.80
75788;BME280;64406;50.024;14.492;2023-04-03T05:49:02;98935.94;;;-2.17;71.28
75788;BME280;64406;50.024;14.492;2023-04-03T05:51:34;98941.69;;;-2.14;71.19
75788;BME280;64406;50.024;14.492;2023-04-03T05:54:15;98962.28;;;-1.95;71.20
75788;BME280;64406;50.024;14.492;2023-04-03T05:56:42;98953.53;;;-1.95;70.71
75788;BME280;64406;50.024;14.492;2023-04-03T05:59:10;98973.50;;;-1.78;70.46
75788;BME280;64406;50.024;14.492;2023-04-03T06:01:38;98925.41;;;-2.03;70.29
75788;BME280;64406;50.024;14.492;2023-04-03T06:04:04;98959.91;;;-1.89;70.00
75788;BME280;64406;50.024;14.492;2023-04-03T06:06:51;98973.84;;;-1.66;72.33
75788;BME280;64406;50.024;14.492;2023-04-03T06:09:22;98974.03;;;-1.68;69.21
75788;BME280;64406;50.024;14.492;2023-04-03T06:11:48;98970.41;;;-1.67;69.95
75788;BME280;64406;50.024;14.492;2023-04-03T06:14:15;98969.03;;;-1.62;69.75
75788;BME280;64406;50.024;14.492;2023-04-03T06:16:42;98978.59;;;-1.47;69.02
75788;BME280;64406;50.024;14.492;2023-04-03T06:19:10;98974.41;;;-1.41;68.95
75788;BME280;64406;50.024;14.492;2023-04-03T06:21:36;98983.59;;;-1.22;70.58
75788;BME280;64406;50.024;14.492;2023-04-03T06:24:05;98983.88;;;-1.17;68.47
75788;BME280;64406;50.024;14.492;2023-04-03T06:26:33;98984.66;;;-1.02;67.99
75788;BME280;64406;50.024;14.492;2023-04-03T06:28:59;98988.75;;;-0.99;68.44
75788;BME280;64406;50.024;14.492;2023-04-03T06:31:26;98996.13;;;-0.95;67.17
75788;BME280;64406;50.024;14.492;2023-04-03T06:33:51;98990.13;;;-0.67;67.25
75788;BME280;64406;50.024;14.492;2023-04-03T06:36:19;98984.84;;;-0.67;67.24
75788;BME280;64406;50.024;14.492;2023-04-03T06:38:46;98990.31;;;-0.69;66.10
75788;BME280;64406;50.024;14.492;2023-04-03T06:41:12;98979.72;;;-0.69;66.51
75788;BME280;64406;50.024;14.492;2023-04-03T06:43:37;99000.78;;;-0.61;66.00
75788;BME280;64406;50.024;14.492;2023-04-03T06:46:03;98989.63;;;-0.35;65.86
75788;BME280;64406;50.024;14.492;2023-04-03T06:48:30;98994.78;;;-0.27;64.82
75788;BME280;64406;50.024;14.492;2023-04-03T06:50:59;99002.59;;;-0.40;64.60
75788;BME280;64406;50.024;14.492;2023-04-03T06:53:24;99003.75;;;-0.49;65.09
75788;BME280;64406;50.024;14.492;2023-04-03T06:55:51;99004.22;;;-0.45;66.07
75788;BME280;64406;50.024;14.492;2023-04-03T06:58:17;99006.66;;;-0.44;65.81
75788;BME280;64406;50.024;14.492;2023-04-03T07:00:51;99003.25;;;-0.38;65.18
75788;BME280;64406;50.024;14.492;2023-04-03T07:03:16;98994.50;;;-0.38;64.89
75788;BME280;64406;50.024;14.492;2023-04-03T07:05:43;99009.31;;;-0.44;64.15
75788;BME280;64406;50.024;14.492;2023-04-03T07:08:09;99009.50;;;-0.45;63.98
75788;BME280;64406;50.024;14.492;2023-04-03T07:10:37;98997.84;;;-0.51;64.54
75788;BME280;64406;50.024;14.492;2023-04-03T07:13:03;99018.81;;;-0.49;64.33
75788;BME280;64406;50.024;14.492;2023-04-03T07:15:29;99014.34;;;-0.49;64.48
75788;BME280;64406;50.024;14.492;2023-04-03T07:17:55;99017.78;;;-0.48;65.38
75788;BME280;64406;50.024;14.492;2023-04-03T07:20:21;99013.59;;;-0.43;64.66
75788;BME280;64406;50.024;14.492;2023-04-03T07:22:48;99018.31;;;-0.38;64.72
75788;BME280;64406;50.024;14.492;2023-04-03T07:25:13;99016.44;;;-0.44;64.66
75788;BME280;64406;50.024;14.492;2023-04-03T07:27:40;99026.44;;;-0.40;64.25
75788;BME280;64406;50.024;14.492;2023-04-03T07:30:07;99012.69;;;-0.50;64.31
75788;BME280;64406;50.024;14.492;2023-04-03T07:32:33;99025.06;;;-0.36;64.09
75788;BME280;64406;50.024;14.492;2023-04-03T07:34:58;99024.16;;;-0.21;64.07
75788;BME280;64406;50.024;14.492;2023-04-03T07:37:24;99012.50;;;-0.06;63.17
75788;BME280;64406;50.024;14.492;2023-04-03T07:39:50;99020.31;;;0.31;62.42
75788;BME280;64406;50.024;14.492;2023-04-03T07:42:16;99021.47;;;0.49;61.15
75788;BME280;64406;50.024;14.492;2023-04-03T07:44:42;99026.13;;;0.41;62.00
75788;BME280;64406;50.024;14.492;2023-04-03T07:47:08;99021.44;;;0.43;61.08
75788;BME280;64406;50.024;14.492;2023-04-03T07:49:34;99027.47;;;0.65;60.52
75788;BME280;64406;50.024;14.492;2023-04-03T07:52:03;99022.28;;;0.85;60.34
75788;BME280;64406;50.024;14.492;2023-04-03T07:54:29;98996.94;;;0.75;58.95
75788;BME280;64406;50.024;14.492;2023-04-03T07:56:57;99004.47;;;1.13;59.16
75788;BME280;64406;50.024;14.492;2023-04-03T07:59:23;99021.34;;;1.53;57.90
75788;BME280;64406;50.024;14.492;2023-04-03T08:01:48;99032.81;;;1.74;56.96
75788;BME280;64406;50.024;14.492;2023-04-03T08:04:14;99030.72;;;1.49;57.28
75788;BME280;64406;50.024;14.492;2023-04-03T08:06:40;99023.06;;;1.20;58.09
75788;BME280;64406;50.024;14.492;2023-04-03T08:09:06;99026.25;;;1.02;58.80
75788;BME280;64406;50.024;14.492;2023-04-03T08:11:31;99024.94;;;1.26;58.58
75788;BME280;64406;50.024;14.492;2023-04-03T08:13:57;99029.47;;;1.52;57.20
75788;BME280;64406;50.024;14.492;2023-04-03T08:16:24;99001.56;;;2.09;55.53
75788;BME280;64406;50.024;14.492;2023-04-03T08:18:52;99023.25;;;1.99;55.92
75788;BME280;64406;50.024;14.492;2023-04-03T08:21:18;99024.47;;;2.03;54.95
75788;BME280;64406;50.024;14.492;2023-04-03T08:23:44;99029.38;;;2.06;55.68
75788;BME280;64406;50.024;14.492;2023-04-03T08:26:16;99035.06;;;2.43;54.89
75788;BME280;64406;50.024;14.492;2023-04-03T08:28:43;99029.09;;;2.74;54.37
75788;BME280;64406;50.024;14.492;2023-04-03T08:31:15;99011.47;;;2.86;53.31
75788;BME280;64406;50.024;14.492;2023-04-03T08:33:41;99027.44;;;2.86;53.42
75788;BME280;64406;50.024;14.492;2023-04-03T08:36:24;99016.44;;;3.27;53.37
75788;BME280;64406;50.024;14.492;2023-04-03T08:38:51;99036.44;;;2.92;51.77
75788;BME280;64406;50.024;14.492;2023-04-03T08:49:26;99028.69;;;4.05;51.55
75788;BME280;64406;50.024;14.492;2023-04-03T08:51:54;99036.59;;;3.48;51.36
75788;BME280;64406;50.024;14.492;2023-04-03T08:54:28;99038.16;;;3.63;51.32
75788;BME280;64406;50.024;14.492;2023-04-03T08:56:55;99033.84;;;3.23;52.06
75788;BME280;64406;50.024;14.492;2023-04-03T08:59:28;99000.16;;;3.42;51.04
75788;BME280;64406;50.024;14.492;2023-04-03T09:01:57;99024.44;;;3.21;50.92
75788;BME280;64406;50.024;14.492;2023-04-03T09:04:27;99026.28;;;3.27;49.13
75788;BME280;64406;50.024;14.492;2023-04-03T09:07:13;99028.03;;;4.34;50.23
75788;BME280;64406;50.024;14.492;2023-04-03T09:09:45;99026.84;;;4.74;51.87
75788;BME280;64406;50.024;14.492;2023-04-03T09:12:27;99029.72;;;6.06;54.57
75788;BME280;64406;50.024;14.492;2023-04-03T09:23:00;99038.28;;;3.81;46.10
75788;BME280;64406;50.024;14.492;2023-04-03T09:25:29;99043.53;;;3.56;45.95
75788;BME280;64406;50.024;14.492;2023-04-03T09:27:59;99040.69;;;3.58;46.05
75788;BME280;64406;50.024;14.492;2023-04-03T09:30:27;99046.13;;;3.31;46.95
75788;BME280;64406;50.024;14.492;2023-04-03T09:32:56;99045.22;;;3.50;46.04
75788;BME280;64406;50.024;14.492;2023-04-03T09:35:34;99050.84;;;3.67;46.79
75788;BME280;64406;50.024;14.492;2023-04-03T09:40:38;99051.94;;;3.08;47.39
75788;BME280;64406;50.024;14.492;2023-04-03T09:45:47;99050.78;;;2.84;48.07
75788;BME280;64406;50.024;14.492;2023-04-03T09:53:39;99051.63;;;2.65;48.69
75788;BME280;64406;50.024;14.492;2023-04-03T09:58:48;99053.03;;;2.87;47.44
75788;BME280;64406;50.024;14.492;2023-04-03T10:01:25;99050.81;;;2.64;46.08
75788;BME280;64406;50.024;14.492;2023-04-03T10:04:10;99050.22;;;2.49;45.95
75788;BME280;64406;50.024;14.492;2023-04-03T10:06:43;99045.22;;;2.92;45.76
75788;BME280;64406;50.024;14.492;2023-04-03T10:12:05;99053.34;;;3.24;45.34
75788;BME280;64406;50.024;14.492;2023-04-03T10:14:37;99059.91;;;3.08;45.71
75788;BME280;64406;50.024;14.492;2023-04-03T10:17:29;99055.44;;;3.02;45.04
75788;BME280;64406;50.024;14.492;2023-04-03T10:25:29;99047.03;;;4.20;44.54
75788;BME280;64406;50.024;14.492;2023-04-03T10:31:01;99042.66;;;4.00;45.15
75788;BME280;64406;50.024;14.492;2023-04-03T10:36:36;99048.53;;;3.39;46.14
75788;BME280;64406;50.024;14.492;2023-04-03T10:45:06;99030.41;;;3.93;44.69
75788;BME280;64406;50.024;14.492;2023-04-03T10:50:31;99036.03;;;4.09;44.24
75788;BME280;64406;50.024;14.492;2023-04-03T10:53:27;99030.81;;;4.46;44.10
75788;BME280;64406;50.024;14.492;2023-04-03T10:58:32;99034.78;;;4.12;44.11
75788;BME280;64406;50.024;14.492;2023-04-03T11:01:06;99027.28;;;3.71;45.71
75788;BME280;64406;50.024;14.492;2023-04-03T11:03:44;99024.91;;;3.49;45.34
75788;BME280;64406;50.024;14.492;2023-04-03T11:06:13;99018.91;;;4.24;45.13
75788;BME280;64406;50.024;14.492;2023-04-03T11:08:51;99011.78;;;4.61;43.72
75788;BME280;64406;50.024;14.492;2023-04-03T11:11:26;99027.16;;;4.16;44.48
75788;BME280;64406;50.024;14.492;2023-04-03T11:16:27;99016.34;;;4.54;43.69
75788;BME280;64406;50.024;14.492;2023-04-03T11:18:59;99013.75;;;5.09;43.17
75788;BME280;64406;50.024;14.492;2023-04-03T11:24:27;99005.97;;;5.97;41.01
75788;BME280;64406;50.024;14.492;2023-04-03T11:26:55;99027.69;;;5.89;40.65
75788;BME280;64406;50.024;14.492;2023-04-03T11:29:29;99016.84;;;5.54;40.86
75788;BME280;64406;50.024;14.492;2023-04-03T11:34:42;99024.13;;;5.47;41.88
75788;BME280;64406;50.024;14.492;2023-04-03T11:37:30;99016.25;;;4.42;42.17
75788;BME280;64406;50.024;14.492;2023-04-03T11:40:26;98991.63;;;4.65;42.38
75788;BME280;64406;50.024;14.492;2023-04-03T11:42:54;99017.59;;;5.61;41.94
75788;BME280;64406;50.024;14.492;2023-04-03T11:45:30;99006.47;;;5.46;40.69
75788;BME280;64406;50.024;14.492;2023-04-03T11:50:55;99000.75;;;5.72;40.56
75788;BME280;64406;50.024;14.492;2023-04-03T11:53:27;98998.66;;;5.63;41.23
75788;BME280;64406;50.024;14.492;2023-04-03T11:55:56;98964.03;;;6.21;39.70
75788;BME280;64406;50.024;14.492;2023-04-03T11:58:24;98991.59;;;6.22;36.93
75788;BME280;64406;50.024;14.492;2023-04-03T12:16:42;98983.19;;;4.25;41.07
75788;BME280;64406;50.024;14.492;2023-04-03T12:43:29;98965.38;;;6.00;49.82
75788;BME280;64406;50.024;14.492;2023-04-03T12:48:39;98963.31;;;6.38;37.38
75788;BME280;64406;50.024;14.492;2023-04-03T12:51:39;98958.66;;;5.56;37.56
75788;BME280;64406;50.024;14.492;2023-04-03T12:54:14;98967.16;;;6.07;37.01
75788;BME280;64406;50.024;14.492;2023-04-03T12:56:41;98964.69;;;5.52;36.65
75788;BME280;64406;50.024;14.492;2023-04-03T12:59:16;98971.00;;;5.69;36.75
75788;BME280;64406;50.024;14.492;2023-04-03T13:01:53;98962.63;;;6.42;35.24
75788;BME280;64406;50.024;14.492;2023-04-03T13:04:19;98962.94;;;7.21;34.33
75788;BME280;64406;50.024;14.492;2023-04-03T13:06:45;98963.19;;;6.68;36.07
75788;BME280;64406;50.024;14.492;2023-04-03T13:09:25;98947.38;;;5.96;37.32
75788;BME280;64406;50.024;14.492;2023-04-03T13:12:10;98968.00;;;5.35;38.12
75788;BME280;64406;50.024;14.492;2023-04-03T13:14:37;98979.84;;;5.69;38.21
75788;BME280;64406;50.024;14.492;2023-04-03T13:17:15;98967.59;;;5.50;38.30
75788;BME280;64406;50.024;14.492;2023-04-03T13:19:44;98960.75;;;5.24;39.60
75788;BME280;64406;50.024;14.492;2023-04-03T13:24:53;98975.47;;;4.97;39.95
75788;BME280;64406;50.024;14.492;2023-04-03T13:27:20;98965.28;;;5.05;40.37
75788;BME280;64406;50.024;14.492;2023-04-03T13:29:54;98960.91;;;5.41;39.78
75788;BME280;64406;50.024;14.492;2023-04-03T13:32:24;98963.69;;;6.41;38.06
75788;BME280;64406;50.024;14.492;2023-04-03T13:34:51;98966.91;;;5.66;38.06
75788;BME280;64406;50.024;14.492;2023-04-03T13:37:23;98964.88;;;4.90;39.63
75788;BME280;64406;50.024;14.492;2023-04-03T13:42:30;98978.34;;;5.13;38.11
75788;BME280;64406;50.024;14.492;2023-04-03T13:45:25;98955.53;;;6.24;36.61
75788;BME280;64406;50.024;14.492;2023-04-03T13:48:07;98965.66;;;6.34;36.03
75788;BME280;64406;50.024;14.492;2023-04-03T13:50:50;98948.78;;;6.34;36.64
75788;BME280;64406;50.024;14.492;2023-04-03T13:53:17;98952.81;;;6.83;36.33
75788;BME280;64406;50.024;14.492;2023-04-03T13:58:29;98941.53;;;6.81;35.08
75788;BME280;64406;50.024;14.492;2023-04-03T14:01:01;98940.25;;;7.12;33.92
75788;BME280;64406;50.024;14.492;2023-04-03T14:03:39;98934.59;;;6.45;34.59
75788;BME280;64406;50.024;14.492;2023-04-03T14:06:08;98942.34;;;6.70;35.04
75788;BME280;64406;50.024;14.492;2023-04-03T14:08:34;98938.00;;;7.49;33.21
75788;BME280;64406;50.024;14.492;2023-04-03T14:11:00;98936.66;;;10.26;29.78
75788;BME280;64406;50.024;14.492;2023-04-03T14:13:28;98935.78;;;8.08;32.20
75788;BME280;64406;50.024;14.492;2023-04-03T14:15:55;98938.56;;;7.34;33.36
75788;BME280;64406;50.024;14.492;2023-04-03T14:18:21;98944.34;;;6.04;35.26
75788;BME280;64406;50.024;14.492;2023-04-03T14:20:48;98940.69;;;5.87;36.02
75788;BME280;64406;50.024;14.492;2023-04-03T14:23:14;98947.19;;;5.79;35.62
75788;BME280;64406;50.024;14.492;2023-04-03T14:25:41;98952.50;;;5.56;36.01
75788;BME280;64406;50.024;14.492;2023-04-03T14:28:15;98945.44;;;5.61;36.32
75788;BME280;64406;50.024;14.492;2023-04-03T14:30:41;98953.03;;;5.46;36.09
75788;BME280;64406;50.024;14.492;2023-04-03T14:33:13;98947.44;;;5.36;37.92
75788;BME280;64406;50.024;14.492;2023-04-03T14:35:39;98941.75;;;5.14;38.35
75788;BME280;64406;50.024;14.492;2023-04-03T14:38:17;98959.00;;;4.81;38.91
75788;BME280;64406;50.024;14.492;2023-04-03T14:40:45;98949.81;;;4.77;38.83
75788;BME280;64406;50.024;14.492;2023-04-03T14:43:12;98940.56;;;4.43;38.92
75788;BME280;64406;50.024;14.492;2023-04-03T14:45:38;98956.69;;;4.30;38.71
75788;BME280;64406;50.024;14.492;2023-04-03T14:48:04;98953.75;;;4.38;38.96
75788;BME280;64406;50.024;14.492;2023-04-03T14:50:34;98950.03;;;4.39;39.33
75788;BME280;64406;50.024;14.492;2023-04-03T14:53:00;98953.16;;;4.54;40.21
75788;BME280;64406;50.024;14.492;2023-04-03T14:55:26;98949.00;;;4.40;39.96
75788;BME280;64406;50.024;14.492;2023-04-03T14:57:53;98940.00;;;3.91;39.44
75788;BME280;64406;50.024;14.492;2023-04-03T15:00:21;98944.41;;;3.79;40.10
75788;BME280;64406;50.024;14.492;2023-04-03T15:02:47;98960.50;;;3.66;40.83
75788;BME280;64406;50.024;14.492;2023-04-03T15:05:13;98948.97;;;3.72;41.53
75788;BME280;64406;50.024;14.492;2023-04-03T15:07:42;98951.47;;;3.67;41.14
75788;BME280;64406;50.024;14.492;2023-04-03T15:12:40;98948.59;;;3.68;40.09
75788;BME280;64406;50.024;14.492;2023-04-03T15:15:06;98952.00;;;3.50;39.72